sensor_id;sensor_type;location;lat;lon;timestamp;P1;durP1;ratioP1;P2;durP2;ratioP2
10100;SDS011;5090;51.258;4.436;2022-09-24T00:00:00;14.50;;;10.17;;
10100;SDS011;5090;51.258;4.436;2022-09-24T00:02:28;14.23;;;10.10;;
10100;SDS011;5090;51.258;4.436;2022-09-24T00:04:56;14.33;;;9.63;;
10100;SDS011;5090;51.258;4.436;2022-09-24T00:07:24;15.60;;;10.43;;
10100;SDS011;5090;51.258;4.436;2022-09-24T00:09:53;17.20;;;9.93;;
10100;SDS011;5090;51.258;4.436;2022-09-24T00:12:21;12.20;;;9.67;;
10100;SDS011;5090;51.258;4.436;2022-09-24T00:14:49;12.80;;;9.90;;
10100;SDS011;5090;51.258;4.436;2022-09-24T00:17:17;12.57;;;9.57;;
10100;SDS011;5090;51.258;4.436;2022-09-24T00:19:46;12.93;;;9.73;;
10100;SDS011;5090;51.258;4.436;2022-09-24T00:22:14;11.80;;;10.10;;
10100;SDS011;5090;51.258;4.436;2022-09-24T00:24:42;14.33;;;9.90;;
10100;SDS011;5090;51.258;4.436;2022-09-24T00:27:16;15.57;;;10.73;;
10100;SDS011;5090;51.258;4.436;2022-09-24T00:29:44;16.40;;;11.23;;
10100;SDS011;5090;51.258;4.436;2022-09-24T00:32:13;16.57;;;11.30;;
10100;SDS011;5090;51.258;4.436;2022-09-24T00:34:41;15.17;;;11.47;;
10100;SDS011;5090;51.258;4.436;2022-09-24T00:37:09;16.63;;;12.50;;
10100;SDS011;5090;51.258;4.436;2022-09-24T00:39:37;17.80;;;12.50;;
10100;SDS011;5090;51.258;4.436;2022-09-24T00:42:06;20.43;;;14.00;;
10100;SDS011;5090;51.258;4.436;2022-09-24T00:44:50;18.97;;;13.93;;
10100;SDS011;5090;51.258;4.436;2022-09-24T00:47:24;22.27;;;14.43;;
10100;SDS011;5090;51.258;4.436;2022-09-24T00:49:50;21.77;;;15.40;;
10100;SDS011;5090;51.258;4.436;2022-09-24T00:52:18;22.40;;;14.57;;
10100;SDS011;5090;51.258;4.436;2022-09-24T00:54:46;22.27;;;15.03;;
10100;SDS011;5090;51.258;4.436;2022-09-24T00:57:15;22.07;;;15.03;;
10100;SDS011;5090;51.258;4.436;2022-09-24T00:59:43;19.87;;;14.83;;
10100;SDS011;5090;51.258;4.436;2022-09-24T01:02:11;21.03;;;14.97;;
10100;SDS011;5090;51.258;4.436;2022-09-24T01:04:39;19.33;;;13.90;;
10100;SDS011;5090;51.258;4.436;2022-09-24T01:07:07;20.80;;;13.70;;
10100;SDS011;5090;51.258;4.436;2022-09-24T01:09:36;20.67;;;13.47;;
10100;SDS011;5090;51.258;4.436;2022-09-24T01:12:08;23.03;;;14.20;;
10100;SDS011;5090;51.258;4.436;2022-09-24T01:14:36;19.33;;;13.87;;
10100;SDS011;5090;51.258;4.436;2022-09-24T01:17:05;19.67;;;13.87;;
10100;SDS011;5090;51.258;4.436;2022-09-24T01:19:40;23.93;;;14.40;;
10100;SDS011;5090;51.258;4.436;2022-09-24T01:22:02;22.97;;;14.47;;
10100;SDS011;5090;51.258;4.436;2022-09-24T01:27:07;20.80;;;14.70;;
10100;SDS011;5090;51.258;4.436;2022-09-24T01:29:48;19.57;;;14.40;;
10100;SDS011;5090;51.258;4.436;2022-09-24T01:32:50;21.70;;;13.83;;
10100;SDS011;5090;51.258;4.436;2022-09-24T01:35:01;18.83;;;14.13;;
10100;SDS011;5090;51.258;4.436;2022-09-24T01:37:28;21.60;;;15.57;;
10100;SDS011;5090;51.258;4.436;2022-09-24T01:39:56;21.37;;;14.43;;
10100;SDS011;5090;51.258;4.436;2022-09-24T01:42:25;19.90;;;14.60;;
10100;SDS011;5090;51.258;4.436;2022-09-24T01:44:53;23.70;;;14.90;;
10100;SDS011;5090;51.258;4.436;2022-09-24T01:47:33;19.57;;;14.60;;
10100;SDS011;5090;51.258;4.436;2022-09-24T01:50:02;21.33;;;15.20;;
10100;SDS011;5090;51.258;4.436;2022-09-24T01:52:33;24.10;;;14.93;;
10100;SDS011;5090;51.258;4.436;2022-09-24T01:54:58;20.50;;;13.77;;
10100;SDS011;5090;51.258;4.436;2022-09-24T01:57:28;20.77;;;14.90;;
10100;SDS011;5090;51.258;4.436;2022-09-24T01:59:58;18.47;;;14.00;;
10100;SDS011;5090;51.258;4.436;2022-09-24T02:02:35;19.67;;;14.57;;
10100;SDS011;5090;51.258;4.436;2022-09-24T02:05:06;19.90;;;14.20;;
10100;SDS011;5090;51.258;4.436;2022-09-24T02:07:34;20.07;;;14.43;;
10100;SDS011;5090;51.258;4.436;2022-09-24T02:10:01;19.43;;;13.60;;
10100;SDS011;5090;51.258;4.436;2022-09-24T02:12:32;19.30;;;14.10;;
10100;SDS011;5090;51.258;4.436;2022-09-24T02:15:02;16.23;;;11.63;;
10100;SDS011;5090;51.258;4.436;2022-09-24T02:17:29;17.70;;;13.13;;
10100;SDS011;5090;51.258;4.436;2022-09-24T02:19:56;15.20;;;11.73;;
10100;SDS011;5090;51.258;4.436;2022-09-24T02:22:24;14.47;;;9.53;;
10100;SDS011;5090;51.258;4.436;2022-09-24T02:24:53;13.90;;;9.27;;
10100;SDS011;5090;51.258;4.436;2022-09-24T02:27:21;11.67;;;8.80;;
10100;SDS011;5090;51.258;4.436;2022-09-24T02:29:49;12.37;;;8.97;;
10100;SDS011;5090;51.258;4.436;2022-09-24T02:32:17;10.87;;;8.37;;
10100;SDS011;5090;51.258;4.436;2022-09-24T02:34:47;9.67;;;7.50;;
10100;SDS011;5090;51.258;4.436;2022-09-24T02:37:14;8.43;;;6.90;;
10100;SDS011;5090;51.258;4.436;2022-09-24T02:39:43;8.90;;;7.10;;
10100;SDS011;5090;51.258;4.436;2022-09-24T02:42:11;9.57;;;7.30;;
10100;SDS011;5090;51.258;4.436;2022-09-24T02:44:39;9.20;;;7.03;;
10100;SDS011;5090;51.258;4.436;2022-09-24T02:47:07;11.40;;;7.47;;
10100;SDS011;5090;51.258;4.436;2022-09-24T02:49:35;9.07;;;7.30;;
10100;SDS011;5090;51.258;4.436;2022-09-24T02:52:04;10.43;;;7.50;;
10100;SDS011;5090;51.258;4.436;2022-09-24T02:54:32;10.63;;;7.07;;
10100;SDS011;5090;51.258;4.436;2022-09-24T02:57:00;10.67;;;7.03;;
10100;SDS011;5090;51.258;4.436;2022-09-24T02:59:29;9.77;;;7.97;;
10100;SDS011;5090;51.258;4.436;2022-09-24T03:01:57;8.60;;;7.40;;
10100;SDS011;5090;51.258;4.436;2022-09-24T03:04:26;11.57;;;7.87;;
10100;SDS011;5090;51.258;4.436;2022-09-24T03:06:54;9.23;;;7.20;;
10100;SDS011;5090;51.258;4.436;2022-09-24T03:09:22;9.80;;;7.40;;
10100;SDS011;5090;51.258;4.436;2022-09-24T03:11:50;11.47;;;7.60;;
10100;SDS011;5090;51.258;4.436;2022-09-24T03:14:19;12.93;;;7.20;;
10100;SDS011;5090;51.258;4.436;2022-09-24T03:16:47;9.60;;;6.87;;
10100;SDS011;5090;51.258;4.436;2022-09-24T03:19:15;8.60;;;6.43;;
10100;SDS011;5090;51.258;4.436;2022-09-24T03:21:43;12.03;;;7.80;;
10100;SDS011;5090;51.258;4.436;2022-09-24T03:24:12;10.60;;;6.73;;
10100;SDS011;5090;51.258;4.436;2022-09-24T03:26:40;9.73;;;6.73;;
10100;SDS011;5090;51.258;4.436;2022-09-24T03:29:08;9.40;;;6.80;;
10100;SDS011;5090;51.258;4.436;2022-09-24T03:31:36;10.73;;;6.83;;
10100;SDS011;5090;51.258;4.436;2022-09-24T03:34:05;8.23;;;6.77;;
10100;SDS011;5090;51.258;4.436;2022-09-24T03:36:33;7.63;;;5.80;;
10100;SDS011;5090;51.258;4.436;2022-09-24T03:39:01;8.70;;;6.40;;
10100;SDS011;5090;51.258;4.436;2022-09-24T03:41:30;8.27;;;6.50;;
10100;SDS011;5090;51.258;4.436;2022-09-24T03:43:58;9.50;;;7.13;;
10100;SDS011;5090;51.258;4.436;2022-09-24T03:46:26;11.93;;;7.07;;
10100;SDS011;5090;51.258;4.436;2022-09-24T03:48:54;10.67;;;6.43;;
10100;SDS011;5090;51.258;4.436;2022-09-24T03:51:23;8.73;;;6.93;;
10100;SDS011;5090;51.258;4.436;2022-09-24T03:53:51;9.50;;;7.03;;
10100;SDS011;5090;51.258;4.436;2022-09-24T03:56:21;8.97;;;7.03;;
10100;SDS011;5090;51.258;4.436;2022-09-24T03:58:51;10.63;;;7.73;;
10100;SDS011;5090;51.258;4.436;2022-09-24T04:01:19;12.23;;;8.03;;
10100;SDS011;5090;51.258;4.436;2022-09-24T04:03:48;10.63;;;7.30;;
10100;SDS011;5090;51.258;4.436;2022-09-24T04:06:16;9.10;;;6.90;;
10100;SDS011;5090;51.258;4.436;2022-09-24T04:08:44;10.90;;;7.50;;
10100;SDS011;5090;51.258;4.436;2022-09-24T04:11:12;11.67;;;8.03;;
10100;SDS011;5090;51.258;4.436;2022-09-24T04:13:40;12.20;;;7.97;;
10100;SDS011;5090;51.258;4.436;2022-09-24T04:16:09;11.20;;;7.93;;
10100;SDS011;5090;51.258;4.436;2022-09-24T04:18:38;9.83;;;8.20;;
10100;SDS011;5090;51.258;4.436;2022-09-24T04:21:06;10.07;;;8.00;;
10100;SDS011;5090;51.258;4.436;2022-09-24T04:23:34;10.13;;;7.90;;
10100;SDS011;5090;51.258;4.436;2022-09-24T04:26:02;13.57;;;9.00;;
10100;SDS011;5090;51.258;4.436;2022-09-24T04:28:30;13.57;;;8.57;;
10100;SDS011;5090;51.258;4.436;2022-09-24T04:30:59;14.93;;;9.83;;
10100;SDS011;5090;51.258;4.436;2022-09-24T04:33:27;13.23;;;9.60;;
10100;SDS011;5090;51.258;4.436;2022-09-24T04:35:55;15.23;;;9.43;;
10100;SDS011;5090;51.258;4.436;2022-09-24T04:38:23;16.50;;;10.77;;
10100;SDS011;5090;51.258;4.436;2022-09-24T04:40:51;17.90;;;10.23;;
10100;SDS011;5090;51.258;4.436;2022-09-24T04:43:21;16.93;;;10.10;;
10100;SDS011;5090;51.258;4.436;2022-09-24T04:45:49;13.57;;;10.17;;
10100;SDS011;5090;51.258;4.436;2022-09-24T04:48:17;14.23;;;10.23;;
10100;SDS011;5090;51.258;4.436;2022-09-24T04:50:45;11.63;;;9.07;;
10100;SDS011;5090;51.258;4.436;2022-09-24T04:53:14;12.80;;;9.80;;
10100;SDS011;5090;51.258;4.436;2022-09-24T04:55:42;13.07;;;8.97;;
10100;SDS011;5090;51.258;4.436;2022-09-24T04:58:10;12.93;;;9.50;;
10100;SDS011;5090;51.258;4.436;2022-09-24T05:00:39;13.63;;;9.63;;
10100;SDS011;5090;51.258;4.436;2022-09-24T05:03:07;16.10;;;9.77;;
10100;SDS011;5090;51.258;4.436;2022-09-24T05:05:37;12.33;;;9.30;;
10100;SDS011;5090;51.258;4.436;2022-09-24T05:08:05;14.30;;;10.43;;
10100;SDS011;5090;51.258;4.436;2022-09-24T05:10:33;14.80;;;10.43;;
10100;SDS011;5090;51.258;4.436;2022-09-24T05:13:01;14.23;;;9.80;;
10100;SDS011;5090;51.258;4.436;2022-09-24T05:15:30;13.83;;;9.63;;
10100;SDS011;5090;51.258;4.436;2022-09-24T05:17:58;15.00;;;10.43;;
10100;SDS011;5090;51.258;4.436;2022-09-24T05:20:26;16.03;;;11.00;;
10100;SDS011;5090;51.258;4.436;2022-09-24T05:22:54;16.57;;;11.60;;
10100;SDS011;5090;51.258;4.436;2022-09-24T05:25:23;15.87;;;10.83;;
10100;SDS011;5090;51.258;4.436;2022-09-24T05:27:52;16.13;;;10.93;;
10100;SDS011;5090;51.258;4.436;2022-09-24T05:30:19;15.87;;;10.50;;
10100;SDS011;5090;51.258;4.436;2022-09-24T05:32:47;18.73;;;11.43;;
10100;SDS011;5090;51.258;4.436;2022-09-24T05:35:17;15.97;;;10.93;;
10100;SDS011;5090;51.258;4.436;2022-09-24T05:37:44;16.70;;;11.90;;
10100;SDS011;5090;51.258;4.436;2022-09-24T05:40:13;17.17;;;11.23;;
10100;SDS011;5090;51.258;4.436;2022-09-24T05:42:47;16.33;;;11.67;;
10100;SDS011;5090;51.258;4.436;2022-09-24T05:45:15;16.57;;;12.83;;
10100;SDS011;5090;51.258;4.436;2022-09-24T05:47:44;17.93;;;12.83;;
10100;SDS011;5090;51.258;4.436;2022-09-24T05:50:12;19.77;;;13.80;;
10100;SDS011;5090;51.258;4.436;2022-09-24T05:52:40;21.20;;;14.00;;
10100;SDS011;5090;51.258;4.436;2022-09-24T05:55:09;21.43;;;14.63;;
10100;SDS011;5090;51.258;4.436;2022-09-24T05:57:37;19.23;;;13.70;;
10100;SDS011;5090;51.258;4.436;2022-09-24T06:00:06;21.53;;;14.63;;
10100;SDS011;5090;51.258;4.436;2022-09-24T06:02:34;19.97;;;14.10;;
10100;SDS011;5090;51.258;4.436;2022-09-24T06:05:02;19.53;;;13.07;;
10100;SDS011;5090;51.258;4.436;2022-09-24T06:07:30;18.77;;;12.53;;
10100;SDS011;5090;51.258;4.436;2022-09-24T06:09:58;18.40;;;12.90;;
10100;SDS011;5090;51.258;4.436;2022-09-24T06:12:26;19.20;;;13.67;;
10100;SDS011;5090;51.258;4.436;2022-09-24T06:14:55;21.97;;;13.40;;
10100;SDS011;5090;51.258;4.436;2022-09-24T06:17:23;22.40;;;14.30;;
10100;SDS011;5090;51.258;4.436;2022-09-24T06:19:51;19.87;;;14.40;;
10100;SDS011;5090;51.258;4.436;2022-09-24T06:22:19;21.40;;;14.00;;
10100;SDS011;5090;51.258;4.436;2022-09-24T06:24:47;19.47;;;13.80;;
10100;SDS011;5090;51.258;4.436;2022-09-24T06:27:17;19.93;;;13.53;;
10100;SDS011;5090;51.258;4.436;2022-09-24T06:29:47;20.67;;;13.30;;
10100;SDS011;5090;51.258;4.436;2022-09-24T06:32:15;19.77;;;14.50;;
10100;SDS011;5090;51.258;4.436;2022-09-24T06:34:43;23.80;;;15.03;;
10100;SDS011;5090;51.258;4.436;2022-09-24T06:37:12;22.40;;;14.47;;
10100;SDS011;5090;51.258;4.436;2022-09-24T06:39:40;23.10;;;16.27;;
10100;SDS011;5090;51.258;4.436;2022-09-24T06:42:08;22.00;;;14.60;;
10100;SDS011;5090;51.258;4.436;2022-09-24T06:44:36;26.13;;;16.30;;
10100;SDS011;5090;51.258;4.436;2022-09-24T06:47:05;23.07;;;17.03;;
10100;SDS011;5090;51.258;4.436;2022-09-24T06:49:33;21.90;;;14.73;;
10100;SDS011;5090;51.258;4.436;2022-09-24T06:52:01;24.23;;;15.90;;
10100;SDS011;5090;51.258;4.436;2022-09-24T06:54:30;26.43;;;16.30;;
10100;SDS011;5090;51.258;4.436;2022-09-24T06:56:58;25.87;;;16.47;;
10100;SDS011;5090;51.258;4.436;2022-09-24T06:59:26;25.77;;;17.27;;
10100;SDS011;5090;51.258;4.436;2022-09-24T07:01:55;23.43;;;16.00;;
10100;SDS011;5090;51.258;4.436;2022-09-24T07:04:23;26.20;;;16.47;;
10100;SDS011;5090;51.258;4.436;2022-09-24T07:06:51;25.53;;;17.27;;
10100;SDS011;5090;51.258;4.436;2022-09-24T07:09:26;26.10;;;16.37;;
10100;SDS011;5090;51.258;4.436;2022-09-24T07:11:54;25.60;;;18.10;;
10100;SDS011;5090;51.258;4.436;2022-09-24T07:14:22;24.90;;;17.33;;
10100;SDS011;5090;51.258;4.436;2022-09-24T07:16:51;27.40;;;18.10;;
10100;SDS011;5090;51.258;4.436;2022-09-24T07:19:19;26.53;;;16.23;;
10100;SDS011;5090;51.258;4.436;2022-09-24T07:21:47;26.40;;;17.50;;
10100;SDS011;5090;51.258;4.436;2022-09-24T07:24:15;25.13;;;16.70;;
10100;SDS011;5090;51.258;4.436;2022-09-24T07:26:43;24.03;;;16.77;;
10100;SDS011;5090;51.258;4.436;2022-09-24T07:29:12;23.60;;;16.53;;
10100;SDS011;5090;51.258;4.436;2022-09-24T07:31:40;25.03;;;16.70;;
10100;SDS011;5090;51.258;4.436;2022-09-24T07:34:08;26.67;;;17.67;;
10100;SDS011;5090;51.258;4.436;2022-09-24T07:36:38;27.70;;;17.33;;
10100;SDS011;5090;51.258;4.436;2022-09-24T07:39:06;25.27;;;16.43;;
10100;SDS011;5090;51.258;4.436;2022-09-24T07:41:34;24.97;;;16.37;;
10100;SDS011;5090;51.258;4.436;2022-09-24T07:44:05;23.30;;;16.17;;
10100;SDS011;5090;51.258;4.436;2022-09-24T07:46:33;26.47;;;16.43;;
10100;SDS011;5090;51.258;4.436;2022-09-24T07:49:02;27.13;;;16.70;;
10100;SDS011;5090;51.258;4.436;2022-09-24T07:51:31;23.93;;;16.27;;
10100;SDS011;5090;51.258;4.436;2022-09-24T07:54:03;25.43;;;16.77;;
10100;SDS011;5090;51.258;4.436;2022-09-24T07:56:32;27.17;;;18.80;;
10100;SDS011;5090;51.258;4.436;2022-09-24T07:59:01;24.63;;;16.80;;
10100;SDS011;5090;51.258;4.436;2022-09-24T08:01:29;29.20;;;17.43;;
10100;SDS011;5090;51.258;4.436;2022-09-24T08:03:57;25.27;;;16.60;;
10100;SDS011;5090;51.258;4.436;2022-09-24T08:06:26;24.83;;;17.63;;
10100;SDS011;5090;51.258;4.436;2022-09-24T08:08:54;26.80;;;16.77;;
10100;SDS011;5090;51.258;4.436;2022-09-24T08:11:23;27.73;;;17.80;;
10100;SDS011;5090;51.258;4.436;2022-09-24T08:13:51;27.70;;;18.93;;
10100;SDS011;5090;51.258;4.436;2022-09-24T08:16:21;27.83;;;17.37;;
10100;SDS011;5090;51.258;4.436;2022-09-24T08:18:49;27.10;;;17.43;;
10100;SDS011;5090;51.258;4.436;2022-09-24T08:21:17;26.27;;;17.93;;
10100;SDS011;5090;51.258;4.436;2022-09-24T08:23:46;30.93;;;18.47;;
10100;SDS011;5090;51.258;4.436;2022-09-24T08:26:14;26.80;;;17.80;;
10100;SDS011;5090;51.258;4.436;2022-09-24T08:28:42;28.20;;;18.17;;
10100;SDS011;5090;51.258;4.436;2022-09-24T08:31:11;22.77;;;17.03;;
10100;SDS011;5090;51.258;4.436;2022-09-24T08:33:39;26.90;;;17.73;;
10100;SDS011;5090;51.258;4.436;2022-09-24T08:36:08;29.03;;;18.33;;
10100;SDS011;5090;51.258;4.436;2022-09-24T08:38:35;27.67;;;17.10;;
10100;SDS011;5090;51.258;4.436;2022-09-24T08:43:43;28.90;;;18.90;;
10100;SDS011;5090;51.258;4.436;2022-09-24T08:46:29;29.63;;;18.10;;
10100;SDS011;5090;51.258;4.436;2022-09-24T08:48:58;28.57;;;19.70;;
10100;SDS011;5090;51.258;4.436;2022-09-24T08:51:27;27.20;;;19.83;;
10100;SDS011;5090;51.258;4.436;2022-09-24T08:53:57;30.60;;;20.47;;
10100;SDS011;5090;51.258;4.436;2022-09-24T08:56:26;27.57;;;19.80;;
10100;SDS011;5090;51.258;4.436;2022-09-24T08:58:58;33.07;;;20.93;;
10100;SDS011;5090;51.258;4.436;2022-09-24T09:01:30;29.43;;;20.27;;
10100;SDS011;5090;51.258;4.436;2022-09-24T09:04:04;32.33;;;20.40;;
10100;SDS011;5090;51.258;4.436;2022-09-24T09:09:18;28.63;;;19.87;;
10100;SDS011;5090;51.258;4.436;2022-09-24T09:11:47;29.53;;;20.97;;
10100;SDS011;5090;51.258;4.436;2022-09-24T09:14:21;32.37;;;20.90;;
10100;SDS011;5090;51.258;4.436;2022-09-24T09:16:51;32.43;;;20.10;;
10100;SDS011;5090;51.258;4.436;2022-09-24T09:19:21;33.47;;;21.90;;
10100;SDS011;5090;51.258;4.436;2022-09-24T09:21:49;30.87;;;21.00;;
10100;SDS011;5090;51.258;4.436;2022-09-24T09:24:17;31.57;;;20.93;;
10100;SDS011;5090;51.258;4.436;2022-09-24T09:26:45;34.77;;;20.33;;
10100;SDS011;5090;51.258;4.436;2022-09-24T09:29:14;32.70;;;19.97;;
10100;SDS011;5090;51.258;4.436;2022-09-24T09:31:48;26.07;;;18.93;;
10100;SDS011;5090;51.258;4.436;2022-09-24T09:34:18;31.53;;;19.87;;
10100;SDS011;5090;51.258;4.436;2022-09-24T09:36:48;30.17;;;19.27;;
10100;SDS011;5090;51.258;4.436;2022-09-24T09:39:19;29.17;;;19.70;;
10100;SDS011;5090;51.258;4.436;2022-09-24T09:41:46;26.80;;;18.80;;
10100;SDS011;5090;51.258;4.436;2022-09-24T09:44:14;34.23;;;22.07;;
10100;SDS011;5090;51.258;4.436;2022-09-24T09:46:45;34.37;;;22.93;;
10100;SDS011;5090;51.258;4.436;2022-09-24T09:49:10;30.73;;;21.77;;
10100;SDS011;5090;51.258;4.436;2022-09-24T09:51:40;33.70;;;21.37;;
10100;SDS011;5090;51.258;4.436;2022-09-24T09:54:07;32.37;;;22.10;;
10100;SDS011;5090;51.258;4.436;2022-09-24T09:56:45;31.33;;;20.77;;
10100;SDS011;5090;51.258;4.436;2022-09-24T09:59:16;34.43;;;20.53;;
10100;SDS011;5090;51.258;4.436;2022-09-24T10:01:44;35.83;;;21.30;;
10100;SDS011;5090;51.258;4.436;2022-09-24T10:06:45;34.27;;;22.93;;
10100;SDS011;5090;51.258;4.436;2022-09-24T10:09:14;34.23;;;23.33;;
10100;SDS011;5090;51.258;4.436;2022-09-24T10:11:42;37.50;;;24.13;;
10100;SDS011;5090;51.258;4.436;2022-09-24T10:14:11;38.58;;;27.45;;
10100;SDS011;5090;51.258;4.436;2022-09-24T10:16:41;38.97;;;25.80;;
10100;SDS011;5090;51.258;4.436;2022-09-24T10:19:19;38.87;;;24.57;;
10100;SDS011;5090;51.258;4.436;2022-09-24T10:21:49;42.67;;;25.10;;
10100;SDS011;5090;51.258;4.436;2022-09-24T10:24:20;35.60;;;24.07;;
10100;SDS011;5090;51.258;4.436;2022-09-24T10:26:48;40.30;;;25.23;;
10100;SDS011;5090;51.258;4.436;2022-09-24T10:29:18;37.30;;;24.83;;
10100;SDS011;5090;51.258;4.436;2022-09-24T10:31:51;43.50;;;26.57;;
10100;SDS011;5090;51.258;4.436;2022-09-24T10:34:21;37.57;;;25.17;;
10100;SDS011;5090;51.258;4.436;2022-09-24T10:36:50;40.40;;;26.37;;
10100;SDS011;5090;51.258;4.436;2022-09-24T10:39:19;41.33;;;25.37;;
10100;SDS011;5090;51.258;4.436;2022-09-24T10:41:47;39.43;;;26.03;;
10100;SDS011;5090;51.258;4.436;2022-09-24T10:44:15;42.20;;;26.30;;
10100;SDS011;5090;51.258;4.436;2022-09-24T10:49:33;35.60;;;23.83;;
10100;SDS011;5090;51.258;4.436;2022-09-24T10:52:03;36.67;;;24.00;;
10100;SDS011;5090;51.258;4.436;2022-09-24T10:57:23;36.67;;;24.63;;
10100;SDS011;5090;51.258;4.436;2022-09-24T10:59:51;35.80;;;24.77;;
10100;SDS011;5090;51.258;4.436;2022-09-24T11:02:24;40.93;;;25.40;;
10100;SDS011;5090;51.258;4.436;2022-09-24T11:04:50;41.43;;;25.00;;
10100;SDS011;5090;51.258;4.436;2022-09-24T11:07:24;43.70;;;25.53;;
10100;SDS011;5090;51.258;4.436;2022-09-24T11:10:56;42.50;;;26.17;;
10100;SDS011;5090;51.258;4.436;2022-09-24T11:15:11;40.27;;;24.63;;
10100;SDS011;5090;51.258;4.436;2022-09-24T11:17:45;42.33;;;26.33;;
10100;SDS011;5090;51.258;4.436;2022-09-24T11:20:10;33.97;;;22.83;;
10100;SDS011;5090;51.258;4.436;2022-09-24T11:22:40;30.07;;;20.20;;
10100;SDS011;5090;51.258;4.436;2022-09-24T11:25:25;31.53;;;20.77;;
10100;SDS011;5090;51.258;4.436;2022-09-24T11:30:27;30.80;;;20.73;;
10100;SDS011;5090;51.258;4.436;2022-09-24T11:35:46;27.90;;;21.83;;
10100;SDS011;5090;51.258;4.436;2022-09-24T11:43:38;21.73;;;17.10;;
10100;SDS011;5090;51.258;4.436;2022-09-24T11:47:11;19.33;;;15.60;;
10100;SDS011;5090;51.258;4.436;2022-09-24T11:48:50;17.97;;;14.20;;
10100;SDS011;5090;51.258;4.436;2022-09-24T11:51:20;16.67;;;12.53;;
10100;SDS011;5090;51.258;4.436;2022-09-24T11:53:49;17.47;;;13.87;;
10100;SDS011;5090;51.258;4.436;2022-09-24T11:56:17;16.57;;;12.87;;
10100;SDS011;5090;51.258;4.436;2022-09-24T11:58:45;16.30;;;13.17;;
10100;SDS011;5090;51.258;4.436;2022-09-24T12:01:20;14.90;;;12.57;;
10100;SDS011;5090;51.258;4.436;2022-09-24T12:03:54;14.83;;;12.97;;
10100;SDS011;5090;51.258;4.436;2022-09-24T12:06:20;12.87;;;11.30;;
10100;SDS011;5090;51.258;4.436;2022-09-24T12:09:57;13.20;;;11.70;;
10100;SDS011;5090;51.258;4.436;2022-09-24T12:11:34;15.60;;;12.37;;
10100;SDS011;5090;51.258;4.436;2022-09-24T12:14:04;14.73;;;11.60;;
10100;SDS011;5090;51.258;4.436;2022-09-24T12:16:32;14.73;;;11.93;;
10100;SDS011;5090;51.258;4.436;2022-09-24T12:19:02;12.93;;;11.43;;
10100;SDS011;5090;51.258;4.436;2022-09-24T12:21:32;14.67;;;11.80;;
10100;SDS011;5090;51.258;4.436;2022-09-24T12:24:00;14.00;;;12.13;;
10100;SDS011;5090;51.258;4.436;2022-09-24T12:26:27;16.67;;;12.83;;
10100;SDS011;5090;51.258;4.436;2022-09-24T12:28:58;15.80;;;12.67;;
10100;SDS011;5090;51.258;4.436;2022-09-24T12:31:34;15.83;;;13.07;;
10100;SDS011;5090;51.258;4.436;2022-09-24T12:34:10;16.37;;;13.07;;
10100;SDS011;5090;51.258;4.436;2022-09-24T12:39:10;17.03;;;12.40;;
10100;SDS011;5090;51.258;4.436;2022-09-24T12:41:39;14.73;;;12.20;;
10100;SDS011;5090;51.258;4.436;2022-09-24T12:44:14;16.47;;;12.87;;
10100;SDS011;5090;51.258;4.436;2022-09-24T12:46:44;14.30;;;12.30;;
10100;SDS011;5090;51.258;4.436;2022-09-24T12:49:17;14.73;;;12.43;;
10100;SDS011;5090;51.258;4.436;2022-09-24T12:51:43;15.07;;;11.83;;
10100;SDS011;5090;51.258;4.436;2022-09-24T12:54:45;13.37;;;10.50;;
10100;SDS011;5090;51.258;4.436;2022-09-24T12:59:31;12.67;;;10.97;;
10100;SDS011;5090;51.258;4.436;2022-09-24T13:02:12;11.20;;;9.90;;
10100;SDS011;5090;51.258;4.436;2022-09-24T13:04:37;12.73;;;10.63;;
10100;SDS011;5090;51.258;4.436;2022-09-24T13:07:25;11.17;;;9.83;;
10100;SDS011;5090;51.258;4.436;2022-09-24T13:09:36;12.77;;;10.50;;
10100;SDS011;5090;51.258;4.436;2022-09-24T13:12:05;11.37;;;10.17;;
10100;SDS011;5090;51.258;4.436;2022-09-24T13:14:32;9.77;;;8.53;;
10100;SDS011;5090;51.258;4.436;2022-09-24T13:17:03;10.10;;;8.67;;
10100;SDS011;5090;51.258;4.436;2022-09-24T13:19:33;9.60;;;8.10;;
10100;SDS011;5090;51.258;4.436;2022-09-24T13:22:00;10.47;;;8.67;;
10100;SDS011;5090;51.258;4.436;2022-09-24T13:24:31;10.50;;;7.80;;
10100;SDS011;5090;51.258;4.436;2022-09-24T13:29:35;5.37;;;3.93;;
10100;SDS011;5090;51.258;4.436;2022-09-24T13:32:00;5.70;;;2.63;;
10100;SDS011;5090;51.258;4.436;2022-09-24T13:34:29;5.33;;;2.13;;
10100;SDS011;5090;51.258;4.436;2022-09-24T13:36:59;2.07;;;1.80;;
10100;SDS011;5090;51.258;4.436;2022-09-24T13:39:33;2.22;;;1.67;;
10100;SDS011;5090;51.258;4.436;2022-09-24T13:42:03;1.43;;;1.33;;
10100;SDS011;5090;51.258;4.436;2022-09-24T13:44:30;3.90;;;1.83;;
10100;SDS011;5090;51.258;4.436;2022-09-24T13:47:00;3.13;;;1.77;;
10100;SDS011;5090;51.258;4.436;2022-09-24T13:49:27;2.33;;;1.70;;
10100;SDS011;5090;51.258;4.436;2022-09-24T13:51:58;4.03;;;1.60;;
10100;SDS011;5090;51.258;4.436;2022-09-24T13:54:27;3.93;;;1.60;;
10100;SDS011;5090;51.258;4.436;2022-09-24T13:57:01;4.97;;;1.90;;
10100;SDS011;5090;51.258;4.436;2022-09-24T13:59:27;1.60;;;1.50;;
10100;SDS011;5090;51.258;4.436;2022-09-24T14:01:56;4.10;;;1.97;;
10100;SDS011;5090;51.258;4.436;2022-09-24T14:04:28;2.20;;;1.80;;
10100;SDS011;5090;51.258;4.436;2022-09-24T14:06:56;2.90;;;1.50;;
10100;SDS011;5090;51.258;4.436;2022-09-24T14:09:26;2.80;;;1.80;;
10100;SDS011;5090;51.258;4.436;2022-09-24T14:11:53;2.40;;;1.53;;
10100;SDS011;5090;51.258;4.436;2022-09-24T14:14:21;3.13;;;1.77;;
10100;SDS011;5090;51.258;4.436;2022-09-24T14:16:49;3.07;;;1.60;;
10100;SDS011;5090;51.258;4.436;2022-09-24T14:19:17;2.47;;;1.57;;
10100;SDS011;5090;51.258;4.436;2022-09-24T14:21:51;2.27;;;1.90;;
10100;SDS011;5090;51.258;4.436;2022-09-24T14:24:18;3.37;;;1.50;;
10100;SDS011;5090;51.258;4.436;2022-09-24T14:26:48;4.87;;;1.67;;
10100;SDS011;5090;51.258;4.436;2022-09-24T14:29:16;2.53;;;1.30;;
10100;SDS011;5090;51.258;4.436;2022-09-24T14:31:44;1.87;;;1.60;;
10100;SDS011;5090;51.258;4.436;2022-09-24T14:34:20;2.20;;;1.40;;
10100;SDS011;5090;51.258;4.436;2022-09-24T14:36:44;2.73;;;1.10;;
10100;SDS011;5090;51.258;4.436;2022-09-24T14:39:12;0.77;;;0.60;;
10100;SDS011;5090;51.258;4.436;2022-09-24T14:41:40;0.80;;;0.80;;
10100;SDS011;5090;51.258;4.436;2022-09-24T14:44:14;0.90;;;0.80;;
10100;SDS011;5090;51.258;4.436;2022-09-24T14:46:45;0.97;;;0.83;;
10100;SDS011;5090;51.258;4.436;2022-09-24T14:49:18;2.33;;;1.07;;
10100;SDS011;5090;51.258;4.436;2022-09-24T14:51:50;6.80;;;1.50;;
10100;SDS011;5090;51.258;4.436;2022-09-24T14:54:21;4.33;;;1.97;;
10100;SDS011;5090;51.258;4.436;2022-09-24T14:56:47;1.70;;;1.60;;
10100;SDS011;5090;51.258;4.436;2022-09-24T14:59:15;3.80;;;1.70;;
10100;SDS011;5090;51.258;4.436;2022-09-24T15:01:43;4.10;;;2.03;;
10100;SDS011;5090;51.258;4.436;2022-09-24T15:04:16;7.27;;;2.13;;
10100;SDS011;5090;51.258;4.436;2022-09-24T15:06:44;7.73;;;2.40;;
10100;SDS011;5090;51.258;4.436;2022-09-24T15:11:46;4.70;;;2.20;;
10100;SDS011;5090;51.258;4.436;2022-09-24T15:14:18;5.90;;;2.63;;
10100;SDS011;5090;51.258;4.436;2022-09-24T15:16:46;6.57;;;3.03;;
10100;SDS011;5090;51.258;4.436;2022-09-24T15:19:23;6.30;;;2.67;;
10100;SDS011;5090;51.258;4.436;2022-09-24T15:21:52;8.67;;;2.50;;
10100;SDS011;5090;51.258;4.436;2022-09-24T15:24:20;13.97;;;2.90;;
10100;SDS011;5090;51.258;4.436;2022-09-24T15:29:23;7.80;;;2.77;;
10100;SDS011;5090;51.258;4.436;2022-09-24T15:31:51;9.00;;;2.50;;
10100;SDS011;5090;51.258;4.436;2022-09-24T15:34:19;11.00;;;2.57;;